Latest Weather Observations for Pirlangimpi

IDD60901

Issued at 2:01 pm CST Tuesday 23 December 2014 (issued every 10 minutes, with the page automatically refreshed every 10 minutes)

About weather observations | Map of Darwin area stations | Latest observations for Darwin area | Other Formats
Station Details ID: 014142 Name: PIRLANGIMPI AIRPORT Lat: -11.40 Lon: 130.42 Height: 18.3 m
Data from the previous 72 hours. | See also: Recent months at Pirlangimpi
Date/Time
CST
Tmp

°C
App
Tmp
°C
Dew
Point
°C
Rel
Hum
%
Delta-T

°C
Wind Press
QNH
hPa
Press
MSL
hPa
Rain
since
9 am
mm
Dir
 
Spd
km/h
Gust
km/h
Spd
kts
Gust
kts
23/02:00pm 34.3 38.4 24.5 56 6.9 NW 11 19 6 10 1007.2 1007.1 0.0
23/01:30pm 34.6 40.0 25.1 57 6.8 NW 6 13 3 7 1007.7 1007.6 0.0
23/01:00pm 33.7 37.7 23.1 54 7.3 SW 7 13 4 7 1008.4 1008.3 0.0
23/12:30pm 33.5 37.5 23.8 57 6.8 SSW 9 17 5 9 1008.7 1008.6 0.0
23/12:00pm 33.5 37.6 22.9 53 7.3 WSW 6 13 3 7 1008.9 1008.8 0.0
23/11:30am 34.8 38.8 23.8 53 7.7 SSW 9 17 5 9 1009.1 1009.0 0.0
23/11:00am 33.8 38.0 23.5 55 7.2 SSW 7 11 4 6 1009.6 1009.5 0.0
23/10:30am 32.9 37.7 24.1 60 6.2 SSW 6 11 3 6 1009.8 1009.7 0.0
23/10:00am 31.9 35.8 22.9 59 6.2 SSW 7 13 4 7 1009.9 1009.8 0.0
23/09:30am 31.8 36.0 23.1 60 6.0 SSE 6 7 3 4 1010.0 1009.9 0.0
23/09:00am 30.9 36.2 23.0 62 5.4 CALM 0 4 0 2 1010.0 1009.9 0.0
23/08:30am 29.9 36.0 24.5 73 3.8 CALM 0 0 0 0 1009.8 1009.7 0.0
23/08:00am 28.4 35.8 26.4 89 1.4 CALM 0 0 0 0 1009.7 1009.6 0.0
23/07:30am 25.8 31.9 25.1 96 0.5 NE 2 4 1 2 1009.5 1009.4 0.0
23/07:00am 24.9 30.3 23.9 94 0.7 NE 2 4 1 2 1009.1 1009.0 0.0
23/06:30am 24.8 30.6 23.9 95 0.6 CALM 0 0 0 0 1008.6 1008.5 0.0
23/06:00am 24.6 30.2 23.6 94 0.7 CALM 0 0 0 0 1008.4 1008.3 0.0
23/05:30am 24.6 30.1 23.4 93 0.8 CALM 0 0 0 0 1008.2 1008.1 0.0
23/05:00am 24.6 30.1 23.4 93 0.8 CALM 0 0 0 0 1007.8 1007.7 0.0
23/04:30am 24.6 30.1 23.4 93 0.8 CALM 0 0 0 0 1007.4 1007.3 0.0
23/04:00am 24.6 30.1 23.4 93 0.8 CALM 0 0 0 0 1007.6 1007.5 0.0
23/03:30am 24.8 30.3 23.4 92 1.0 CALM 0 0 0 0 1007.6 1007.5 0.0
23/03:00am 25.0 30.6 23.6 92 1.0 CALM 0 0 0 0 1007.8 1007.7 0.0
23/02:30am 25.1 30.7 23.5 91 1.1 CALM 0 0 0 0 1007.6 1007.5 0.0
23/02:00am 25.0 30.6 23.6 92 1.0 CALM 0 0 0 0 1007.3 1007.2 0.0
23/01:30am 25.4 31.1 23.8 91 1.1 CALM 0 0 0 0 1007.6 1007.5 0.0
23/01:00am 25.5 31.2 23.7 90 1.2 CALM 0 0 0 0 1007.9 1007.8 0.0
23/12:30am 25.5 30.9 23.9 91 1.1 NNE 2 4 1 2 1007.9 1007.8 0.0
23/12:00am 25.8 31.0 24.2 91 1.1 ENE 4 4 2 2 1008.3 1008.2 0.0
 
Date/Time
CST
Tmp

°C
App
Tmp
°C
Dew
Point
°C
Rel
Hum
%
Delta-T

°C
Wind Press
QNH
hPa
Press
MSL
hPa
Rain
since
9 am
mm
Dir
 
Spd
km/h
Gust
km/h
Spd
kts
Gust
kts
22/11:30pm 25.8 31.2 23.8 89 1.4 NNE 2 4 1 2 1008.3 1008.2 0.0
22/11:00pm 26.0 31.8 24.0 89 1.4 CALM 0 0 0 0 1008.1 1008.0 0.0
22/10:30pm 26.4 32.6 24.6 90 1.3 CALM 0 0 0 0 1008.0 1007.9 0.0
22/10:00pm 26.7 32.8 24.5 88 1.5 CALM 0 0 0 0 1008.0 1007.9 0.0
22/09:30pm 26.8 32.9 24.5 87 1.6 CALM 0 0 0 0 1007.8 1007.7 0.0
22/09:00pm 27.1 33.2 24.4 85 1.9 CALM 0 0 0 0 1007.6 1007.5 0.0
22/08:30pm 27.4 33.2 24.5 84 2.0 ENE 2 4 1 2 1007.3 1007.2 0.0
22/08:00pm 27.8 33.8 24.2 81 2.5 CALM 0 2 0 1 1007.1 1007.0 0.0
22/07:30pm 28.9 34.7 24.5 77 3.1 ESE 2 4 1 2 1006.7 1006.6 0.0
22/07:00pm 29.4 34.7 24.3 74 3.5 SSE 4 6 2 3 1006.3 1006.2 0.0
22/06:30pm 30.3 35.2 23.7 68 4.6 SSW 4 6 2 3 1005.9 1005.8 0.0
22/06:00pm 30.7 35.0 22.6 62 5.5 NNE 4 7 2 4 1005.8 1005.7 0.0
22/05:30pm 32.0 35.3 21.5 53 7.1 NNE 6 13 3 7 1005.7 1005.6 0.0
22/05:00pm 33.8 37.1 21.9 49 8.1 NNE 7 17 4 9 1005.7 1005.6 0.0
22/04:30pm 35.5 39.3 22.8 47 8.8 N 7 17 4 9 1005.9 1005.8 0.0
22/04:00pm 35.4 38.0 22.0 45 9.2 NE 11 22 6 12 1006.1 1006.0 0.0
22/03:30pm 36.5 39.5 21.9 42 10.0 NE 9 15 5 8 1006.2 1006.1 0.0
22/03:00pm 34.6 39.1 23.6 52 7.7 NW 6 13 3 7 1006.4 1006.3 0.0
22/02:30pm 35.5 40.1 24.1 51 8.0 N 7 20 4 11 1006.8 1006.7 0.0
22/02:00pm 35.2 39.1 21.8 45 9.2 N 4 11 2 6 1007.1 1007.0 0.0
22/01:30pm 35.2 38.7 22.2 47 8.9 ENE 7 15 4 8 1007.5 1007.4 0.0
22/01:00pm 35.2 38.9 23.2 49 8.3 NE 9 17 5 9 1007.8 1007.7 0.0
22/12:30pm 34.9 38.8 23.6 52 7.9 NE 9 17 5 9 1008.2 1008.1 0.0
22/12:00pm 35.0 38.8 22.7 49 8.5 NE 7 19 4 10 1008.4 1008.3 0.0
22/11:30am 35.5 38.7 23.1 48 8.6 NE 11 19 6 10 1008.5 1008.4 0.0
22/11:00am 34.2 38.1 23.6 54 7.4 NNE 9 15 5 8 1008.8 1008.7 0.0
22/10:30am 33.1 37.1 23.7 57 6.6 N 9 19 5 10 1008.8 1008.7 0.0
22/10:00am 32.8 37.7 24.6 62 5.8 NE 7 15 4 8 1009.3 1009.2 0.0
22/09:30am 32.1 37.6 24.7 65 5.2 NNE 4 9 2 5 1009.3 1009.2 0.0
22/09:00am 31.4 37.3 25.3 70 4.3 ENE 4 13 2 7 1009.7 1009.6 0.0
22/08:30am 29.7 35.8 25.7 79 2.8 NE 4 6 2 3 1009.5 1009.4 0.0
22/08:00am 27.9 34.9 25.9 89 1.4 CALM 0 0 0 0 1009.0 1008.9 0.0
22/07:30am 26.5 33.3 25.6 95 0.6 CALM 0 0 0 0 1008.7 1008.6 0.0
22/07:00am 25.8 32.2 24.9 95 0.6 CALM 0 0 0 0 1008.5 1008.4 0.0
22/06:30am 25.3 30.6 24.4 95 0.6 NE 4 4 2 2 1007.9 1007.8 0.0
22/06:00am 25.2 30.8 24.3 95 0.6 NNE 2 6 1 3 1007.6 1007.5 0.0
22/05:30am 25.1 30.2 24.1 94 0.7 NE 4 6 2 3 1007.5 1007.4 0.0
22/05:00am 25.2 30.8 24.2 94 0.7 NE 2 4 1 2 1007.3 1007.2 0.0
22/04:30am 25.1 30.9 23.9 93 0.8 CALM 0 0 0 0 1007.1 1007.0 0.0
22/04:00am 25.3 31.1 23.9 92 1.0 CALM 0 0 0 0 1007.1 1007.0 0.0
22/03:30am 25.5 31.4 24.1 92 1.0 CALM 0 0 0 0 1007.0 1006.9 0.0
22/03:00am 25.6 31.6 24.2 92 1.0 CALM 0 0 0 0 1006.9 1006.8 0.0
22/02:30am 25.6 30.9 24.4 93 0.8 NE 4 6 2 3 1007.2 1007.1 0.0
22/02:00am 25.6 30.8 24.2 92 1.0 NE 4 6 2 3 1007.4 1007.3 0.0
22/01:30am 25.8 31.5 24.4 92 1.0 NE 2 4 1 2 1007.5 1007.4 0.0
22/01:00am 26.0 32.1 24.4 91 1.1 CALM 0 0 0 0 1007.7 1007.6 0.0
22/12:30am 26.3 32.4 24.5 90 1.2 CALM 0 0 0 0 1007.9 1007.8 0.0
22/12:00am 26.5 32.6 24.5 89 1.4 CALM 0 2 0 1 1008.1 1008.0 0.0
 
Date/Time
CST
Tmp

°C
App
Tmp
°C
Dew
Point
°C
Rel
Hum
%
Delta-T

°C
Wind Press
QNH
hPa
Press
MSL
hPa
Rain
since
9 am
mm
Dir
 
Spd
km/h
Gust
km/h
Spd
kts
Gust
kts
21/11:30pm 26.7 32.8 24.5 88 1.5 CALM 0 0 0 0 1008.0 1007.9 0.0
21/11:00pm 27.1 32.6 24.7 87 1.7 ESE 4 6 2 3 1008.3 1008.2 0.0
21/10:30pm 27.3 32.9 24.9 87 1.7 ESE 4 6 2 3 1008.2 1008.1 0.0
21/10:00pm 27.5 33.9 24.9 86 1.8 CALM 0 0 0 0 1007.9 1007.8 0.0
21/09:30pm 27.8 34.0 24.6 83 2.2 CALM 0 0 0 0 1007.5 1007.4 0.0
21/09:00pm 28.3 34.2 24.7 81 2.5 SSE 2 6 1 3 1007.1 1007.0 0.0
21/08:30pm 28.8 34.3 24.1 76 3.3 NNE 2 2 1 1 1006.7 1006.6 0.0
21/08:00pm 29.4 34.9 24.0 72 3.7 NNE 2 4 1 2 1006.7 1006.6 0.0
21/07:30pm 30.0 35.3 23.7 69 4.4 NNE 2 4 1 2 1006.2 1006.1 0.0
21/07:00pm 30.5 34.9 23.4 66 4.9 NNE 6 9 3 5 1005.6 1005.5 0.0
21/06:30pm 31.4 36.4 23.8 64 5.3 NNE 4 7 2 4 1005.1 1005.0 0.0
21/06:00pm 31.9 36.3 23.4 60 5.9 NNE 6 9 3 5 1005.0 1004.9 0.0
21/05:30pm 33.7 38.2 23.7 56 7.0 NNE 6 9 3 5 1004.7 1004.6 0.0
21/05:00pm 33.1 37.3 23.1 55 6.9 NNE 6 11 3 6 1004.7 1004.6 0.0
21/04:30pm 33.9 38.5 24.2 57 6.8 NNE 7 13 4 7 1004.9 1004.8 0.0
21/04:00pm 33.3 38.4 25.0 61 5.9 NW 7 13 4 7 1005.1 1005.0 0.0
21/03:30pm 34.3 39.7 26.0 62 6.0 NW 9 19 5 10 1005.4 1005.3 0.0
21/03:00pm 33.6 38.7 25.6 63 5.7 NW 9 17 5 9 1005.8 1005.7 0.0
21/02:30pm 33.5 38.6 25.5 63 5.7 NW 9 20 5 11 1006.3 1006.2 0.0
21/02:00pm 33.4 38.5 25.6 63 5.6 WNW 9 15 5 8 1006.6 1006.5 0.0
21/01:30pm 34.0 39.2 25.7 62 5.9 WNW 9 17 5 9 1007.0 1006.9 0.0
21/01:00pm 34.5 40.0 24.7 56 6.9 S 4 9 2 5 1007.7 1007.6 0.0
21/12:30pm 34.6 40.0 24.5 55 7.1 NNE 4 9 2 5 1008.1 1008.0 0.0
21/12:00pm 33.9 39.3 24.5 58 6.6 SSE 4 7 2 4 1008.8 1008.7 0.0
21/11:30am 33.4 39.6 24.6 60 6.2 CALM 0 6 0 3 1009.3 1009.2 0.0
21/11:00am 32.9 38.6 24.4 61 6.0 E 2 6 1 3 1009.7 1009.6 0.0
21/10:30am 32.2 37.3 24.0 62 5.7 S 4 7 2 4 1010.0 1009.9 0.0
21/10:00am 31.6 37.1 24.7 67 4.8 SE 4 6 2 3 1010.1 1010.0 0.0
21/09:30am 31.4 37.5 25.7 71 4.1 SSE 4 7 2 4 1009.8 1009.7 0.0
21/09:00am 30.3 36.6 26.5 80 2.7 SSE 6 7 3 4 1009.6 1009.5 0.0
21/08:30am 29.5 36.0 26.3 83 2.3 SE 4 6 2 3 1009.2 1009.1 0.0
21/08:00am 28.9 36.1 26.7 88 1.6 SE 2 2 1 1 1008.6 1008.5 0.0
21/07:30am 27.2 34.5 26.3 95 0.6 CALM 0 0 0 0 1008.4 1008.3 0.0
21/07:00am 26.4 33.2 25.5 95 0.6 CALM 0 0 0 0 1008.1 1008.0 0.0
21/06:30am 25.9 32.3 24.9 94 0.7 CALM 0 0 0 0 1007.8 1007.7 0.0
21/06:00am 25.8 32.1 24.8 94 0.7 CALM 0 0 0 0 1007.6 1007.5 0.0
21/05:30am 26.1 31.9 25.1 94 0.7 ENE 4 6 2 3 1007.2 1007.1 0.0
21/05:00am 26.1 32.6 25.1 94 0.7 CALM 0 2 0 1 1006.9 1006.8 0.0
21/04:30am 26.3 32.6 25.3 94 0.7 NE 2 6 1 3 1006.9 1006.8 0.0
21/04:00am 26.2 32.7 25.0 93 0.8 CALM 0 0 0 0 1006.8 1006.7 0.0
21/03:30am 26.5 33.1 25.3 93 0.8 CALM 0 0 0 0 1006.7 1006.6 0.0
21/03:00am 26.5 33.1 25.3 93 0.8 CALM 0 0 0 0 1007.1 1007.0 0.0
21/02:30am 26.7 33.5 25.5 93 0.8 CALM 0 0 0 0 1007.4 1007.3 0.0
21/02:00am 26.6 33.3 25.4 93 0.8 CALM 0 0 0 0 1007.7 1007.6 0.0
21/01:30am 26.7 33.3 25.3 92 1.0 CALM 0 0 0 0 1008.0 1007.9 0.0
21/01:00am 26.9 33.8 25.7 93 0.8 CALM 0 0 0 0 1008.4 1008.3 0.0
21/12:30am 26.8 33.6 25.6 93 0.8 CALM 0 0 0 0 1008.6 1008.5 0.0
21/12:00am 26.6 33.1 25.0 91 1.1 CALM 0 0 0 0 1008.9 1008.8 0.0
 
Date/Time
CST
Tmp

°C
App
Tmp
°C
Dew
Point
°C
Rel
Hum
%
Delta-T

°C
Wind Press
QNH
hPa
Press
MSL
hPa
Rain
since
9 am
mm
Dir
 
Spd
km/h
Gust
km/h
Spd
kts
Gust
kts
20/11:30pm 26.7 33.0 24.7 89 1.4 CALM 0 0 0 0 1009.2 1009.1 0.0
20/11:00pm 27.1 33.5 24.9 88 1.5 CALM 0 0 0 0 1009.0 1008.9 0.0
20/10:30pm 27.2 33.3 25.0 88 1.5 NNE 2 4 1 2 1009.0 1008.9 0.0
20/10:00pm 27.4 33.9 25.0 87 1.7 CALM 0 0 0 0 1008.6 1008.5 0.0
20/09:30pm 27.5 33.8 24.7 85 2.0 CALM 0 0 0 0 1008.3 1008.2 0.0
20/09:00pm 27.8 33.6 24.6 83 2.2 N 2 6 1 3 1007.7 1007.6 0.0
20/08:30pm 27.9 33.3 24.5 82 2.4 NNE 4 4 2 2 1007.4 1007.3 0.0
20/08:00pm 28.5 34.1 24.3 78 2.9 NNE 2 2 1 1 1006.8 1006.7 0.0
20/07:30pm 29.1 35.1 24.2 75 3.4 CALM 0 4 0 2 1006.3 1006.2 0.0
20/07:00pm 30.4 36.4 24.8 72 3.9 N 2 4 1 2 1006.2 1006.1 0.0
20/06:30pm 30.9 36.3 24.5 68 4.5 N 4 6 2 3 1005.8 1005.7 0.0
20/06:00pm 31.4 36.4 23.8 64 5.3 NNW 4 7 2 4 1005.4 1005.3 0.0
20/05:30pm 31.9 36.7 24.5 65 5.2 NNW 7 13 4 7 1005.2 1005.1 0.0
20/05:00pm 32.6 38.0 25.2 65 5.2 NNW 6 9 3 5 1005.2 1005.1 0.0
20/04:30pm 33.2 38.8 25.5 64 5.5 NNW 6 7 3 4 1005.2 1005.1 0.0
20/04:00pm 33.1 38.8 25.6 64 5.3 WNW 6 11 3 6 1005.3 1005.2 0.0
20/03:30pm 33.6 38.4 24.2 58 6.6 WNW 6 11 3 6 1005.5 1005.4 0.0
20/03:00pm 34.3 40.1 25.1 58 6.5 WNW 4 7 2 4 1005.9 1005.8 0.0
20/02:30pm 33.7 39.0 24.3 58 6.6 WNW 4 9 2 5 1006.5 1006.4 0.0

Latest Capital City Observations: Canberra | Sydney | Melbourne | Brisbane | Adelaide | Perth | Hobart | Darwin

Other Formats:

Comma delimited format used in spreadsheet applications
http://www.bom.gov.au/fwo/IDD60901/IDD60901.94119.axf

JavaScript Object Notation format (JSON) in row-major order
http://www.bom.gov.au/fwo/IDD60901/IDD60901.94119.json